Time;durP1;ratioP1;P1;durP2;ratioP2;P2;SDS_P1;SDS_P2;PMS_P1;PMS_P2;Temp;Humidity;BMP_temperature;BMP_pressure;BME280_temperature;BME280_humidity;BME280_pressure;Samples;Min_cycle;Max_cycle;Signal;HPM_P1;HPM_P2
2022/01/30 00:01:41;;;;;;;3.67;1.30;;;6.60;99.90;;;;;;5050035;28;20048;-68
2022/01/30 00:04:07;;;;;;;1.38;1.27;;;6.60;99.90;;;;;;5046699;28;20465;-67
2022/01/30 00:06:33;;;;;;;1.63;1.50;;;6.60;99.90;;;;;;5048063;28;20162;-69
2022/01/30 00:08:58;;;;;;;1.90;1.65;;;6.60;99.90;;;;;;5048722;28;20473;-68
2022/01/30 00:11:29;;;;;;;2.05;1.70;;;6.60;99.90;;;;;;5045946;28;20040;-68
2022/01/30 00:13:55;;;;;;;1.90;1.80;;;6.60;99.90;;;;;;5049991;28;20388;-70
2022/01/30 00:16:23;;;;;;;4.03;1.58;;;6.50;99.90;;;;;;5049873;28;20032;-68
2022/01/30 00:19:06;;;;;;;1.83;1.73;;;6.50;99.90;;;;;;5048942;28;20028;-68
2022/01/30 00:21:40;;;;;;;3.75;1.80;;;6.50;99.90;;;;;;5032276;28;20021;-69
2022/01/30 00:24:23;;;;;;;1.90;1.80;;;6.60;99.90;;;;;;5049562;28;20028;-68
2022/01/30 00:26:50;;;;;;;1.52;1.42;;;6.50;99.90;;;;;;5048983;28;20036;-69
2022/01/30 00:29:15;;;;;;;1.85;1.75;;;6.50;99.90;;;;;;5048973;28;20017;-69
2022/01/30 00:31:42;;;;;;;2.50;2.30;;;6.60;99.90;;;;;;5050098;28;20104;-69
2022/01/30 00:34:08;;;;;;;3.92;1.98;;;6.50;99.90;;;;;;5049598;28;20112;-68
2022/01/30 00:36:34;;;;;;;2.17;2.00;;;6.50;99.90;;;;;;5048869;28;20120;-69
2022/01/30 00:39:00;;;;;;;2.35;2.25;;;6.60;99.90;;;;;;5047728;28;20477;-69
2022/01/30 00:41:26;;;;;;;3.70;2.53;;;6.50;99.90;;;;;;5032034;28;20124;-69
2022/01/30 00:43:52;;;;;;;3.30;2.78;;;6.50;99.90;;;;;;5049437;28;20036;-69
2022/01/30 00:46:17;;;;;;;2.58;2.33;;;6.50;99.90;;;;;;5050589;28;20033;-69
2022/01/30 00:48:43;;;;;;;3.15;2.60;;;6.60;99.90;;;;;;5047019;28;20434;-69
2022/01/30 00:51:09;;;;;;;2.70;2.50;;;6.50;99.90;;;;;;5049724;28;20025;-68
2022/01/30 00:53:34;;;;;;;2.63;2.38;;;6.50;99.90;;;;;;5049209;28;20044;-68
2022/01/30 00:56:00;;;;;;;4.10;2.60;;;6.50;99.90;;;;;;5035849;28;20037;-69
2022/01/30 00:58:26;;;;;;;4.05;2.63;;;6.50;99.90;;;;;;5044078;28;20112;-69
2022/01/30 01:00:51;;;;;;;2.70;2.50;;;6.50;99.90;;;;;;5049699;28;20434;-69
2022/01/30 01:03:17;;;;;;;3.78;2.60;;;6.50;99.90;;;;;;5055536;28;20048;-68
2022/01/30 01:05:43;;;;;;;2.50;2.30;;;6.50;99.90;;;;;;5057034;28;20025;-68
2022/01/30 01:08:15;;;;;;;3.22;2.58;;;6.40;99.90;;;;;;5042535;28;20401;-68
2022/01/30 01:10:47;;;;;;;2.78;2.45;;;6.40;99.90;;;;;;5036097;28;20029;-69
2022/01/30 01:23:56;;;;;;;3.20;2.40;;;6.30;99.90;;;;;;5049474;28;20411;-69
2022/01/30 01:26:23;;;;;;;3.03;2.65;;;6.30;99.90;;;;;;5048458;28;20013;-68
2022/01/30 01:28:50;;;;;;;2.45;2.25;;;6.30;99.90;;;;;;5047097;28;20029;-69
2022/01/30 01:31:16;;;;;;;2.78;2.58;;;6.30;99.90;;;;;;5048134;28;20033;-68
2022/01/30 01:36:11;;;;;;;2.40;2.20;;;6.20;99.90;;;;;;5049063;28;20032;-69
2022/01/30 01:38:37;;;;;;;2.30;2.10;;;6.20;99.90;;;;;;5051704;28;20029;-69
2022/01/30 01:41:03;;;;;;;2.30;2.10;;;6.20;99.90;;;;;;5048825;28;20025;-68
2022/01/30 01:43:30;;;;;;;2.97;2.05;;;6.20;99.90;;;;;;5048537;28;20052;-69
2022/01/30 01:45:57;;;;;;;4.75;2.38;;;6.20;99.90;;;;;;5052369;28;20032;-69
2022/01/30 01:48:23;;;;;;;3.03;2.72;;;6.20;99.90;;;;;;5041447;28;20532;-68
2022/01/30 01:50:54;;;;;;;2.40;2.20;;;6.20;99.90;;;;;;5052620;28;20120;-69
2022/01/30 01:53:24;;;;;;;4.07;2.58;;;6.20;99.90;;;;;;5052210;28;20044;-69
2022/01/30 01:55:50;;;;;;;3.55;2.80;;;6.20;99.90;;;;;;5045179;28;20029;-69
2022/01/30 01:58:16;;;;;;;3.95;2.88;;;6.20;99.90;;;;;;5049434;28;20094;-69
2022/01/30 02:00:41;;;;;;;3.28;2.97;;;6.20;99.90;;;;;;5051745;28;20484;-69
2022/01/30 02:03:08;;;;;;;2.83;2.63;;;6.20;99.90;;;;;;5052208;28;20021;-69
2022/01/30 02:05:36;;;;;;;3.60;2.75;;;6.10;99.90;;;;;;5052423;28;20033;-70
2022/01/30 02:10:40;;;;;;;2.42;2.22;;;6.10;99.90;;;;;;5050599;28;20039;-69
2022/01/30 02:13:42;;;;;;;3.95;2.72;;;6.20;99.90;;;;;;5048660;28;20075;-68
2022/01/30 02:24:13;;;;;;;3.90;2.65;;;6.10;99.90;;;;;;5051584;28;20036;-69
2022/01/30 02:26:44;;;;;;;3.15;2.78;;;6.10;99.90;;;;;;5051446;28;20385;-69
2022/01/30 02:29:11;;;;;;;2.60;2.40;;;6.20;99.90;;;;;;5046316;28;20082;-69
2022/01/30 02:31:39;;;;;;;2.80;2.60;;;6.10;99.90;;;;;;5051158;28;20052;-68
2022/01/30 02:34:05;;;;;;;3.47;2.60;;;6.10;99.90;;;;;;5051789;28;20547;-68
2022/01/30 02:36:31;;;;;;;3.85;2.70;;;6.10;99.90;;;;;;5051907;28;20032;-69
2022/01/30 02:38:59;;;;;;;2.60;2.40;;;6.10;99.90;;;;;;5049876;28;20075;-69
2022/01/30 02:41:25;;;;;;;4.10;2.85;;;6.10;99.90;;;;;;5049837;28;20123;-69
2022/01/30 02:44:05;;;;;;;3.80;3.40;;;6.10;99.90;;;;;;5050620;28;20100;-69
2022/01/30 02:46:34;;;;;;;4.75;2.83;;;6.10;99.90;;;;;;5052279;28;20029;-69
2022/01/30 02:49:12;;;;;;;3.60;3.25;;;6.10;99.90;;;;;;5050356;28;20037;-68
2022/01/30 02:51:46;;;;;;;4.22;3.30;;;6.10;99.90;;;;;;5050635;28;20040;-67
2022/01/30 02:54:13;;;;;;;6.05;3.47;;;6.10;99.90;;;;;;5050381;28;20028;-69
2022/01/30 02:56:40;;;;;;;3.97;3.35;;;6.10;99.90;;;;;;5043001;28;20127;-69
2022/01/30 02:59:06;;;;;;;6.55;3.25;;;6.10;99.90;;;;;;5050042;28;20031;-69
2022/01/30 03:01:32;;;;;;;6.53;3.78;;;6.10;99.90;;;;;;5051546;28;20021;-69
2022/01/30 03:03:57;;;;;;;5.05;3.28;;;6.10;99.90;;;;;;5057554;28;20029;-69
2022/01/30 03:06:23;;;;;;;4.05;3.50;;;6.10;99.90;;;;;;5051507;28;20453;-69
2022/01/30 03:08:48;;;;;;;6.50;3.15;;;6.10;99.90;;;;;;5029091;28;20033;-68
2022/01/30 03:11:14;;;;;;;4.68;3.50;;;6.10;99.90;;;;;;5041393;28;20381;-69
2022/01/30 03:13:39;;;;;;;6.65;3.47;;;6.10;99.90;;;;;;5037509;28;20044;-69
2022/01/30 03:16:06;;;;;;;6.57;3.42;;;6.10;99.90;;;;;;5043144;28;20128;-69
2022/01/30 03:18:32;;;;;;;3.85;3.42;;;6.10;99.90;;;;;;5050446;28;20032;-69
2022/01/30 03:20:57;;;;;;;5.75;3.67;;;6.10;99.90;;;;;;5050585;28;20043;-69
2022/01/30 03:23:23;;;;;;;7.72;3.65;;;6.10;99.90;;;;;;5051488;28;20387;-68
2022/01/30 03:25:54;;;;;;;7.35;4.20;;;6.10;99.90;;;;;;5050468;28;20084;-69
2022/01/30 03:28:20;;;;;;;6.13;3.47;;;6.10;99.90;;;;;;5031262;28;20040;-69
2022/01/30 03:30:48;;;;;;;6.25;3.58;;;6.10;99.90;;;;;;5049610;28;20025;-69
2022/01/30 03:33:13;;;;;;;4.63;3.78;;;6.10;99.90;;;;;;5050254;28;20047;-68
2022/01/30 03:35:40;;;;;;;4.80;3.33;;;6.10;99.90;;;;;;5050458;28;20108;-67
2022/01/30 03:38:05;;;;;;;3.80;2.95;;;6.10;99.90;;;;;;5048478;28;20032;-69
2022/01/30 03:40:31;;;;;;;4.32;3.38;;;6.10;99.90;;;;;;5049637;28;20021;-69
2022/01/30 03:42:56;;;;;;;4.55;3.17;;;6.10;99.90;;;;;;5050347;28;20112;-69
2022/01/30 03:45:22;;;;;;;7.40;3.25;;;6.10;99.90;;;;;;5050313;28;20385;-68
2022/01/30 03:47:48;;;;;;;6.05;3.50;;;6.10;99.90;;;;;;5047448;28;20369;-69
2022/01/30 03:50:14;;;;;;;7.90;3.72;;;6.10;99.90;;;;;;5047094;28;20507;-68
2022/01/30 03:52:39;;;;;;;5.60;3.28;;;6.10;99.90;;;;;;5049685;28;20074;-68
2022/01/30 03:55:05;;;;;;;5.57;3.40;;;6.10;99.90;;;;;;5049422;28;20039;-69
2022/01/30 03:57:31;;;;;;;7.32;3.90;;;6.10;99.90;;;;;;5048584;28;20035;-69
2022/01/30 03:59:56;;;;;;;6.93;3.83;;;6.10;99.90;;;;;;5032338;28;20029;-69
2022/01/30 04:02:23;;;;;;;7.00;4.00;;;6.10;99.90;;;;;;5050426;28;20033;-69
2022/01/30 04:04:48;;;;;;;7.10;3.72;;;6.00;99.90;;;;;;5049899;28;20025;-68
2022/01/30 04:07:14;;;;;;;9.35;3.90;;;6.10;99.90;;;;;;5029867;28;20029;-69
2022/01/30 04:09:40;;;;;;;10.95;4.30;;;6.00;99.90;;;;;;5048601;28;20025;-69
2022/01/30 04:12:07;;;;;;;8.18;4.30;;;6.10;99.90;;;;;;5018665;28;20029;-67
2022/01/30 04:14:32;;;;;;;9.57;4.03;;;6.00;99.90;;;;;;5043815;28;20029;-69
2022/01/30 04:16:58;;;;;;;6.85;4.25;;;6.00;99.90;;;;;;5043904;28;20371;-67
2022/01/30 04:19:24;;;;;;;8.27;4.03;;;6.00;99.90;;;;;;5048126;28;20025;-67
2022/01/30 04:21:49;;;;;;;8.65;4.20;;;6.00;99.90;;;;;;5049282;28;20389;-69
2022/01/30 04:24:15;;;;;;;8.63;4.30;;;6.00;99.90;;;;;;5048170;28;20389;-68
2022/01/30 04:26:43;;;;;;;11.70;4.47;;;6.00;99.90;;;;;;5049772;28;20473;-69
2022/01/30 04:29:09;;;;;;;8.75;4.20;;;5.90;99.90;;;;;;5047056;28;20036;-68
2022/01/30 04:31:34;;;;;;;5.70;3.85;;;5.90;99.90;;;;;;5048861;28;20017;-67
2022/01/30 04:34:00;;;;;;;9.85;4.05;;;5.90;99.90;;;;;;5047957;28;20512;-69
2022/01/30 04:36:31;;;;;;;7.15;3.90;;;5.90;99.90;;;;;;5049246;28;20509;-69
2022/01/30 04:39:06;;;;;;;7.18;3.58;;;5.90;99.90;;;;;;5046770;28;20093;-68
2022/01/30 04:42:04;;;;;;;11.63;3.35;;;5.90;99.90;;;;;;5049117;28;20384;-68
2022/01/30 05:08:12;;;;;;;8.53;3.50;;;5.80;99.90;;;;;;5078986;28;20052;-70
2022/01/30 05:10:38;;;;;;;8.98;3.35;;;5.80;99.90;;;;;;5088512;28;20044;-70
2022/01/30 05:13:08;;;;;;;11.70;4.38;;;5.70;99.90;;;;;;5074123;28;20020;-72
2022/01/30 05:15:34;;;;;;;10.85;3.63;;;5.80;99.90;;;;;;5069351;28;20472;-70
2022/01/30 05:18:00;;;;;;;9.68;3.35;;;5.70;99.90;;;;;;5067697;28;20032;-69
2022/01/30 05:20:26;;;;;;;10.38;3.50;;;5.70;99.90;;;;;;5072452;28;20026;-71
2022/01/30 05:22:52;;;;;;;11.80;3.47;;;5.70;99.90;;;;;;5067687;28;20097;-71
2022/01/30 05:25:18;;;;;;;9.98;3.55;;;5.70;99.90;;;;;;5073428;28;20024;-73
2022/01/30 05:27:44;;;;;;;7.95;2.88;;;5.70;99.90;;;;;;5085512;28;20111;-69
2022/01/30 05:30:10;;;;;;;11.07;3.88;;;5.70;99.90;;;;;;5072873;28;20124;-70
2022/01/30 05:32:36;;;;;;;12.25;3.70;;;5.70;99.90;;;;;;5073170;28;20492;-69
2022/01/30 05:35:01;;;;;;;15.02;4.13;;;5.70;99.90;;;;;;5072425;28;20035;-69
2022/01/30 05:37:27;;;;;;;13.18;4.13;;;5.60;99.90;;;;;;5064167;28;20100;-68
2022/01/30 05:39:53;;;;;;;10.95;3.83;;;5.60;99.90;;;;;;5053311;28;20487;-72
2022/01/30 05:42:19;;;;;;;10.52;4.45;;;5.60;99.90;;;;;;5072934;28;20074;-70
2022/01/30 05:47:20;;;;;;;16.27;4.25;;;5.60;99.90;;;;;;5071299;28;20459;-69
2022/01/30 05:49:48;;;;;;;12.65;4.35;;;5.60;99.90;;;;;;5072878;28;20040;-69
2022/01/30 05:52:13;;;;;;;9.77;4.22;;;5.60;99.90;;;;;;5072332;28;20025;-69
2022/01/30 05:54:39;;;;;;;10.48;4.15;;;5.60;99.90;;;;;;5072088;28;20032;-69
2022/01/30 05:57:05;;;;;;;9.70;3.75;;;5.60;99.90;;;;;;5071731;28;20103;-69
2022/01/30 05:59:31;;;;;;;9.27;3.75;;;5.60;99.90;;;;;;5071435;28;20062;-69
2022/01/30 06:01:56;;;;;;;11.70;4.30;;;5.60;99.90;;;;;;5072574;28;20029;-69
2022/01/30 06:04:22;;;;;;;10.98;3.95;;;5.60;99.90;;;;;;5072379;28;20039;-69
2022/01/30 06:06:51;;;;;;;9.35;4.32;;;5.60;99.90;;;;;;5069848;28;20024;-70
2022/01/30 06:11:42;;;;;;;9.65;3.33;;;5.60;99.90;;;;;;5071550;28;20042;-69
2022/01/30 06:14:08;;;;;;;13.13;3.90;;;5.60;99.90;;;;;;5072791;28;20118;-69
2022/01/30 06:16:33;;;;;;;12.27;3.72;;;5.60;99.90;;;;;;5071966;28;20392;-70
2022/01/30 06:18:59;;;;;;;9.00;3.67;;;5.60;99.90;;;;;;5071161;28;20024;-72
2022/01/30 06:21:25;;;;;;;11.57;3.70;;;5.50;99.90;;;;;;5072313;28;20033;-71
2022/01/30 06:23:51;;;;;;;13.38;3.92;;;5.50;99.90;;;;;;5072059;28;20028;-69
2022/01/30 06:26:16;;;;;;;8.88;3.97;;;5.50;99.90;;;;;;5068035;28;20028;-69
2022/01/30 06:28:42;;;;;;;9.88;3.55;;;5.50;99.90;;;;;;5071204;28;20141;-69
2022/01/30 06:31:07;;;;;;;7.40;3.58;;;5.50;99.90;;;;;;5072210;28;20021;-71
2022/01/30 06:33:33;;;;;;;11.80;4.40;;;5.50;99.90;;;;;;5072414;28;20421;-69
2022/01/30 06:35:58;;;;;;;8.77;3.83;;;5.50;99.90;;;;;;5071880;28;20377;-69
2022/01/30 06:38:24;;;;;;;13.85;3.80;;;5.50;99.90;;;;;;5056540;28;20033;-69
2022/01/30 06:40:50;;;;;;;13.35;3.83;;;5.40;99.90;;;;;;5070988;28;20021;-70
2022/01/30 06:43:15;;;;;;;12.70;3.13;;;5.40;99.90;;;;;;5072364;28;20029;-69
2022/01/30 06:45:42;;;;;;;8.70;2.92;;;5.40;99.90;;;;;;5071649;28;20073;-70
2022/01/30 06:48:08;;;;;;;7.43;2.97;;;5.40;99.90;;;;;;5070822;28;20085;-71
2022/01/30 06:50:34;;;;;;;6.40;2.70;;;5.30;99.90;;;;;;5071905;28;20029;-69
2022/01/30 06:53:00;;;;;;;9.82;3.13;;;5.40;99.90;;;;;;5071564;28;20527;-69
2022/01/30 06:55:25;;;;;;;9.07;3.05;;;5.30;99.90;;;;;;5071219;28;20048;-69
2022/01/30 06:57:51;;;;;;;11.75;2.90;;;5.30;99.90;;;;;;5070327;28;20051;-71
2022/01/30 07:00:16;;;;;;;7.13;2.50;;;5.30;99.90;;;;;;5070830;28;20024;-70
2022/01/30 07:02:42;;;;;;;8.50;2.50;;;5.30;99.90;;;;;;5070332;28;20484;-72
2022/01/30 07:05:08;;;;;;;8.63;3.03;;;5.30;99.90;;;;;;5070953;28;20028;-69
2022/01/30 07:07:34;;;;;;;14.23;2.95;;;5.30;99.90;;;;;;5068627;28;20040;-69
2022/01/30 07:10:00;;;;;;;12.48;2.90;;;5.20;99.90;;;;;;5070892;28;20036;-69
2022/01/30 07:12:26;;;;;;;13.57;3.08;;;5.20;99.90;;;;;;5071240;28;20507;-69
2022/01/30 07:14:52;;;;;;;15.50;2.95;;;5.20;99.90;;;;;;5071353;28;20036;-69
2022/01/30 07:17:17;;;;;;;14.70;2.70;;;5.20;99.90;;;;;;5069673;28;20031;-70
2022/01/30 07:19:43;;;;;;;11.82;2.70;;;5.20;99.90;;;;;;5064871;28;20129;-69
2022/01/30 07:22:09;;;;;;;17.05;2.97;;;5.20;99.90;;;;;;5065921;28;20036;-71
2022/01/30 07:24:34;;;;;;;8.95;2.80;;;5.20;99.90;;;;;;5053629;28;20036;-69
2022/01/30 07:27:00;;;;;;;7.43;2.60;;;5.20;99.90;;;;;;5069488;28;20033;-69
2022/01/30 07:29:25;;;;;;;10.27;2.92;;;5.20;99.90;;;;;;5070947;28;20020;-70
2022/01/30 07:31:51;;;;;;;9.48;2.97;;;5.20;99.90;;;;;;5071037;28;20082;-70
2022/01/30 07:34:20;;;;;;;12.57;2.85;;;5.20;99.90;;;;;;5070758;28;20032;-71
2022/01/30 07:36:46;;;;;;;10.15;2.60;;;5.20;99.90;;;;;;5083648;28;20031;-68
2022/01/30 07:39:12;;;;;;;11.63;2.90;;;5.10;99.90;;;;;;5066531;28;20024;-68
2022/01/30 07:41:37;;;;;;;15.18;3.35;;;5.10;99.90;;;;;;5070063;28;20384;-69
2022/01/30 07:44:04;;;;;;;9.45;3.00;;;5.10;99.90;;;;;;5070707;28;20020;-68
2022/01/30 07:46:30;;;;;;;9.80;2.50;;;5.10;99.90;;;;;;5069463;28;20021;-69
2022/01/30 07:48:56;;;;;;;16.45;3.03;;;5.10;99.90;;;;;;5068243;28;20036;-69
2022/01/30 07:51:22;;;;;;;13.68;2.28;;;5.10;99.90;;;;;;5069362;28;20074;-70
2022/01/30 07:53:48;;;;;;;12.23;2.28;;;5.10;99.90;;;;;;5049955;28;20472;-71
2022/01/30 07:56:13;;;;;;;13.70;2.92;;;5.10;99.90;;;;;;5060080;28;20481;-69
2022/01/30 07:58:39;;;;;;;7.20;2.10;;;5.10;99.90;;;;;;5065852;28;20027;-69
2022/01/30 08:01:05;;;;;;;8.90;2.20;;;5.20;99.90;;;;;;5070601;28;20045;-69
2022/01/30 08:03:31;;;;;;;14.98;2.67;;;5.30;99.90;;;;;;5068326;28;20031;-70
2022/01/30 08:05:56;;;;;;;12.93;2.88;;;5.30;99.90;;;;;;5070504;28;20032;-70
2022/01/30 08:08:22;;;;;;;8.63;2.45;;;5.30;99.90;;;;;;5068004;28;20037;-70
2022/01/30 08:10:48;;;;;;;10.50;2.47;;;5.50;99.90;;;;;;5070018;28;20134;-72
2022/01/30 08:13:15;;;;;;;10.93;2.50;;;5.50;99.90;;;;;;5070433;28;20568;-69
2022/01/30 08:15:41;;;;;;;11.23;2.40;;;5.50;99.90;;;;;;5071311;28;20032;-70
2022/01/30 08:18:07;;;;;;;13.13;3.42;;;5.40;99.90;;;;;;5066597;28;20378;-69
2022/01/30 08:20:32;;;;;;;10.40;2.60;;;5.50;99.90;;;;;;5062014;28;20487;-70
2022/01/30 08:23:00;;;;;;;10.40;2.50;;;5.50;99.90;;;;;;5064914;28;20029;-69
2022/01/30 08:25:26;;;;;;;11.20;2.15;;;5.60;99.90;;;;;;5069664;28;20021;-69
2022/01/30 08:27:54;;;;;;;12.88;2.30;;;5.60;99.90;;;;;;5067734;28;20028;-69
2022/01/30 08:30:20;;;;;;;13.10;2.40;;;5.60;99.90;;;;;;5071147;28;20028;-70
2022/01/30 08:32:49;;;;;;;11.35;2.45;;;5.60;99.90;;;;;;5072029;28;20028;-70
2022/01/30 08:35:16;;;;;;;10.25;2.60;;;5.70;99.90;;;;;;5071809;28;20455;-70
2022/01/30 08:37:42;;;;;;;9.32;2.55;;;5.60;99.90;;;;;;5070772;28;20024;-70
2022/01/30 08:40:16;;;;;;;13.25;2.63;;;5.60;99.90;;;;;;5070028;28;20044;-69
2022/01/30 08:42:43;;;;;;;8.60;2.13;;;5.50;99.90;;;;;;5064077;28;20428;-69
2022/01/30 08:45:10;;;;;;;12.60;2.30;;;5.50;99.90;;;;;;5067286;28;20057;-69
2022/01/30 08:47:37;;;;;;;11.40;2.33;;;5.50;99.90;;;;;;5066355;28;20032;-69
2022/01/30 08:50:04;;;;;;;9.20;2.25;;;5.50;99.90;;;;;;5064634;28;20120;-70
2022/01/30 08:52:30;;;;;;;9.38;2.20;;;5.50;99.90;;;;;;5066973;28;20031;-69
2022/01/30 08:54:56;;;;;;;12.18;2.13;;;5.50;99.90;;;;;;5070108;28;20119;-70
2022/01/30 08:57:21;;;;;;;12.82;2.30;;;5.60;99.90;;;;;;5069382;28;20055;-71
2022/01/30 08:59:47;;;;;;;12.30;2.42;;;5.60;99.90;;;;;;5069970;28;20543;-69
2022/01/30 09:02:13;;;;;;;9.02;2.13;;;5.70;99.90;;;;;;5084965;28;20082;-69
2022/01/30 09:04:38;;;;;;;13.85;2.40;;;5.70;99.90;;;;;;5069500;28;20089;-69
2022/01/30 09:07:04;;;;;;;9.35;2.00;;;5.70;99.90;;;;;;5068911;28;20484;-69
2022/01/30 09:09:32;;;;;;;15.45;2.65;;;5.70;99.90;;;;;;5062015;28;20027;-70
2022/01/30 09:11:58;;;;;;;11.40;2.45;;;5.70;99.90;;;;;;5071721;28;20078;-71
2022/01/30 09:14:25;;;;;;;13.82;2.60;;;5.70;99.90;;;;;;5070408;28;20419;-70
2022/01/30 09:16:51;;;;;;;10.48;2.00;;;5.70;99.90;;;;;;5068099;28;20066;-70
2022/01/30 09:19:16;;;;;;;13.95;2.30;;;5.60;99.90;;;;;;5067248;28;20032;-69
2022/01/30 09:21:42;;;;;;;8.75;1.90;;;5.60;99.90;;;;;;5054711;28;20042;-70
2022/01/30 09:24:07;;;;;;;9.25;2.45;;;5.60;99.90;;;;;;5069383;28;20511;-72
2022/01/30 09:26:33;;;;;;;13.60;2.80;;;5.60;99.90;;;;;;5068831;28;20021;-69
2022/01/30 09:28:58;;;;;;;10.90;2.55;;;5.60;99.90;;;;;;5057782;28;20025;-69
2022/01/30 09:31:24;;;;;;;10.10;2.40;;;5.60;99.90;;;;;;5069972;28;20028;-71
2022/01/30 09:33:50;;;;;;;9.25;1.83;;;5.60;99.90;;;;;;5068590;28;20051;-69
2022/01/30 09:36:15;;;;;;;16.15;2.60;;;5.60;99.90;;;;;;5069767;28;20495;-69
2022/01/30 09:38:42;;;;;;;16.33;2.50;;;5.60;99.90;;;;;;5068845;28;20037;-71
2022/01/30 09:41:11;;;;;;;12.15;2.00;;;5.50;99.90;;;;;;5066899;28;20031;-69
2022/01/30 09:43:37;;;;;;;10.05;2.17;;;5.50;99.90;;;;;;5066473;28;20017;-70
2022/01/30 09:46:03;;;;;;;14.90;2.35;;;5.50;99.90;;;;;;5064712;28;20082;-71
2022/01/30 09:48:35;;;;;;;9.82;1.92;;;5.50;99.90;;;;;;5067694;28;20040;-69
2022/01/30 09:51:04;;;;;;;9.07;1.83;;;5.50;99.90;;;;;;5069816;28;20024;-69
2022/01/30 09:53:32;;;;;;;10.55;2.15;;;5.60;99.90;;;;;;5063810;28;20025;-70
2022/01/30 09:55:57;;;;;;;12.90;2.10;;;5.60;99.90;;;;;;5068588;28;20538;-70
2022/01/30 09:58:23;;;;;;;11.10;1.90;;;5.60;99.90;;;;;;5065415;28;20036;-69
2022/01/30 10:00:49;;;;;;;5.70;1.77;;;5.60;99.90;;;;;;5069059;28;20024;-69
2022/01/30 10:03:22;;;;;;;10.57;1.60;;;5.60;99.90;;;;;;5069134;28;20052;-69
2022/01/30 10:06:13;;;;;;;7.38;1.77;;;5.60;99.90;;;;;;5071405;28;20542;-69
2022/01/30 10:08:45;;;;;;;6.35;2.03;;;5.60;99.90;;;;;;5069088;28;20036;-69
2022/01/30 10:11:28;;;;;;;13.50;2.30;;;5.60;99.90;;;;;;5068970;28;20020;-69
2022/01/30 10:14:04;;;;;;;12.13;2.05;;;5.70;99.90;;;;;;5071527;28;20024;-69
2022/01/30 10:16:35;;;;;;;7.72;2.10;;;5.70;99.90;;;;;;5059819;28;20031;-70
2022/01/30 10:19:08;;;;;;;10.90;2.10;;;5.70;99.90;;;;;;5064954;28;20020;-69
2022/01/30 10:21:34;;;;;;;11.98;2.88;;;5.80;99.90;;;;;;5056041;28;20103;-69
2022/01/30 10:24:00;;;;;;;7.32;2.20;;;5.80;99.90;;;;;;5072367;28;20556;-69
2022/01/30 10:26:32;;;;;;;12.07;1.73;;;5.80;99.90;;;;;;5072585;28;20499;-69
2022/01/30 10:29:24;;;;;;;6.25;1.70;;;5.80;99.90;;;;;;5071223;28;20033;-68
2022/01/30 10:32:16;;;;;;;9.25;1.90;;;5.80;99.90;;;;;;5072540;28;20028;-71
2022/01/30 10:34:54;;;;;;;12.18;2.03;;;5.90;99.90;;;;;;5068635;28;20102;-69
2022/01/30 10:37:23;;;;;;;6.38;1.70;;;5.90;99.90;;;;;;5067654;28;20044;-71
2022/01/30 10:40:16;;;;;;;9.95;1.88;;;6.00;99.90;;;;;;5072185;28;20384;-69
2022/01/30 10:42:50;;;;;;;12.65;2.33;;;6.10;99.90;;;;;;5071116;28;20032;-69
2022/01/30 10:45:19;;;;;;;9.43;1.70;;;6.20;99.90;;;;;;5071905;28;20114;-68
2022/01/30 10:47:45;;;;;;;10.45;2.45;;;6.20;99.90;;;;;;5066329;28;20032;-68
2022/01/30 10:50:17;;;;;;;7.82;1.75;;;6.20;99.90;;;;;;5083515;28;20139;-68
2022/01/30 10:52:56;;;;;;;8.25;2.10;;;6.30;99.90;;;;;;5064875;28;20040;-69
2022/01/30 10:55:35;;;;;;;8.40;1.85;;;6.40;99.90;;;;;;5075597;28;20077;-70
2022/01/30 10:58:01;;;;;;;8.70;1.80;;;6.50;99.90;;;;;;5068645;28;20056;-69
2022/01/30 11:00:50;;;;;;;6.47;1.52;;;6.50;99.90;;;;;;5068640;28;20448;-71
2022/01/30 11:03:40;;;;;;;8.98;1.60;;;6.40;99.90;;;;;;5068661;28;20032;-70
2022/01/30 11:06:10;;;;;;;10.55;1.88;;;6.40;99.90;;;;;;5133538;22;20028;-69
2022/01/30 11:08:39;;;;;;;12.18;1.90;;;6.40;99.90;;;;;;5100166;27;20032;-69
2022/01/30 11:11:11;;;;;;;7.25;1.80;;;6.40;99.90;;;;;;5102452;28;20035;-71
2022/01/30 11:14:16;;;;;;;9.38;1.85;;;6.40;99.90;;;;;;5109964;27;20080;-70
2022/01/30 11:19:19;;;;;;;9.55;1.50;;;6.50;99.90;;;;;;5108452;28;20138;-69
2022/01/30 11:21:53;;;;;;;3.72;1.05;;;6.50;99.90;;;;;;5103600;27;20042;-68
2022/01/30 11:24:19;;;;;;;8.32;1.70;;;6.50;99.90;;;;;;5103182;28;20059;-69
2022/01/30 11:26:46;;;;;;;8.45;1.85;;;6.50;99.90;;;;;;5108284;27;20031;-69
2022/01/30 11:29:20;;;;;;;11.32;2.15;;;6.40;99.90;;;;;;5103388;28;20057;-69
2022/01/30 11:31:46;;;;;;;13.00;1.80;;;6.40;99.90;;;;;;5105414;28;20074;-69
2022/01/30 11:34:12;;;;;;;7.63;1.60;;;6.40;99.90;;;;;;5109016;28;20050;-69
2022/01/30 11:36:42;;;;;;;8.73;1.70;;;6.40;99.90;;;;;;5111581;28;20521;-69
2022/01/30 11:39:09;;;;;;;7.93;2.10;;;6.40;99.90;;;;;;5108785;28;20798;-68
2022/01/30 11:41:35;;;;;;;7.20;1.75;;;6.40;99.90;;;;;;5103425;28;20027;-69
2022/01/30 11:44:18;;;;;;;8.98;2.08;;;6.50;99.90;;;;;;5109653;28;20024;-70
2022/01/30 11:46:52;;;;;;;9.40;3.30;;;6.50;99.90;;;;;;5098681;28;20097;-69
2022/01/30 11:49:18;;;;;;;7.22;1.55;;;6.50;99.90;;;;;;5105650;28;20016;-69
2022/01/30 11:51:53;;;;;;;7.43;1.77;;;6.50;99.90;;;;;;5110946;28;20050;-69
2022/01/30 11:54:33;;;;;;;10.63;2.47;;;6.50;99.90;;;;;;5110227;28;20116;-69
2022/01/30 11:56:59;;;;;;;7.65;1.75;;;6.50;99.90;;;;;;5108454;28;20099;-69
2022/01/30 11:59:39;;;;;;;9.77;2.95;;;6.50;99.90;;;;;;5106827;28;20055;-69
2022/01/30 12:02:27;;;;;;;7.32;1.58;;;6.40;99.90;;;;;;5101494;28;20031;-69
2022/01/30 12:04:56;;;;;;;8.95;1.73;;;6.40;99.90;;;;;;5097131;28;20406;-69
2022/01/30 12:07:48;;;;;;;8.20;2.55;;;6.40;99.90;;;;;;5105680;28;20102;-69
2022/01/30 12:10:24;;;;;;;10.52;1.88;;;6.50;99.90;;;;;;5106206;28;20034;-69
2022/01/30 12:13:03;;;;;;;7.93;2.00;;;6.60;99.90;;;;;;5102196;28;20475;-69
2022/01/30 12:15:38;;;;;;;5.20;1.35;;;6.60;99.90;;;;;;5105054;27;20109;-69
2022/01/30 12:18:12;;;;;;;9.75;2.53;;;6.60;99.90;;;;;;5107474;28;20058;-69
2022/01/30 12:20:56;;;;;;;7.65;2.05;;;6.60;99.90;;;;;;5110751;27;20047;-69
2022/01/30 12:23:26;;;;;;;6.65;1.77;;;6.60;99.90;;;;;;5108820;28;20023;-69
2022/01/30 12:26:04;;;;;;;7.45;1.30;;;6.60;99.90;;;;;;5107323;28;20118;-69
2022/01/30 12:28:48;;;;;;;8.80;2.00;;;6.50;99.90;;;;;;5108431;28;20421;-69
2022/01/30 12:31:40;;;;;;;7.70;1.75;;;6.50;99.90;;;;;;5103119;28;20114;-69
2022/01/30 12:34:15;;;;;;;4.88;1.45;;;6.60;99.90;;;;;;5103674;28;20042;-69
2022/01/30 12:36:53;;;;;;;12.82;3.40;;;6.50;99.90;;;;;;5104164;28;20360;-69
2022/01/30 12:39:21;;;;;;;9.45;2.67;;;6.50;99.90;;;;;;5109080;28;20429;-69
2022/01/30 12:41:48;;;;;;;6.88;1.92;;;6.50;99.90;;;;;;5104120;27;20023;-69
2022/01/30 12:44:16;;;;;;;9.07;2.83;;;6.50;99.90;;;;;;5100781;28;20020;-69
2022/01/30 12:46:48;;;;;;;8.75;1.90;;;6.60;99.90;;;;;;5106598;28;20032;-70
2022/01/30 12:49:19;;;;;;;6.55;1.33;;;6.60;99.90;;;;;;5105736;28;20025;-69
2022/01/30 12:51:53;;;;;;;9.13;1.77;;;6.60;99.90;;;;;;5106544;28;20031;-69
2022/01/30 12:54:25;;;;;;;7.90;1.60;;;6.60;99.90;;;;;;5104957;28;20447;-69
2022/01/30 12:56:53;;;;;;;7.13;1.90;;;6.60;99.90;;;;;;5106339;28;20055;-69
2022/01/30 12:59:19;;;;;;;6.60;1.77;;;6.50;99.90;;;;;;5109881;27;20108;-69
2022/01/30 13:01:48;;;;;;;7.88;1.75;;;6.50;99.90;;;;;;5106237;28;20039;-69
2022/01/30 13:04:15;;;;;;;9.95;1.73;;;6.60;99.90;;;;;;5105775;28;20062;-69
2022/01/30 13:06:45;;;;;;;5.43;1.40;;;6.50;99.90;;;;;;5098762;28;20099;-69
2022/01/30 13:09:16;;;;;;;9.40;1.88;;;6.50;99.90;;;;;;5102984;28;20084;-69
2022/01/30 13:11:41;;;;;;;7.80;1.83;;;6.50;99.90;;;;;;5107267;28;20023;-69
2022/01/30 13:14:08;;;;;;;6.50;1.60;;;6.60;99.90;;;;;;5108362;28;20368;-69
2022/01/30 13:16:39;;;;;;;6.82;1.98;;;6.60;99.90;;;;;;5108704;28;20019;-69
2022/01/30 13:19:10;;;;;;;9.82;1.50;;;6.60;99.90;;;;;;5105658;28;20498;-69
2022/01/30 13:21:39;;;;;;;6.75;1.50;;;6.60;99.90;;;;;;5108473;28;20015;-69
2022/01/30 13:24:06;;;;;;;5.68;1.42;;;6.60;99.90;;;;;;5101191;28;20024;-70
2022/01/30 13:26:33;;;;;;;8.23;1.63;;;6.60;99.90;;;;;;5101157;28;20065;-70
2022/01/30 13:29:00;;;;;;;8.88;1.50;;;6.60;99.90;;;;;;5118837;28;20027;-70
2022/01/30 13:31:26;;;;;;;8.05;1.40;;;6.50;99.90;;;;;;5101632;28;20494;-69
2022/01/30 13:34:06;;;;;;;10.18;1.60;;;6.50;99.90;;;;;;5101974;28;20039;-69
2022/01/30 13:36:34;;;;;;;6.95;1.40;;;6.50;99.90;;;;;;5098240;28;20016;-69
2022/01/30 13:39:05;;;;;;;5.25;1.63;;;6.50;99.90;;;;;;5102569;28;20042;-70
2022/01/30 13:41:33;;;;;;;6.28;1.45;;;6.50;99.90;;;;;;5106602;28;20080;-70
2022/01/30 13:43:58;;;;;;;13.27;1.80;;;6.50;99.90;;;;;;5104733;28;20023;-70
2022/01/30 13:49:14;;;;;;;6.40;1.25;;;6.40;99.90;;;;;;5102934;28;20084;-70
2022/01/30 13:51:40;;;;;;;7.40;1.40;;;6.30;99.90;;;;;;5104506;28;20024;-70
2022/01/30 13:54:10;;;;;;;5.68;1.77;;;6.30;99.90;;;;;;5103012;28;20539;-69
2022/01/30 13:56:36;;;;;;;7.03;1.30;;;6.30;99.90;;;;;;5101018;28;20433;-70
2022/01/30 13:59:02;;;;;;;4.72;1.20;;;6.40;99.90;;;;;;5102274;28;20031;-70